createdAt,value
2023-04-12T00:00:25.231Z,42.55
2023-04-12T00:01:25.205Z,42.50
2023-04-12T00:02:25.333Z,42.50
2023-04-12T00:03:25.465Z,42.50
2023-04-12T00:04:25.400Z,42.61
2023-04-12T00:05:25.471Z,42.55
2023-04-12T00:06:25.146Z,42.44
2023-04-12T00:07:25.123Z,45.09
2023-04-12T00:08:25.122Z,42.50
2023-04-12T00:09:25.099Z,45.04
2023-04-12T00:10:25.089Z,44.98
2023-04-12T00:11:25.069Z,42.55
2023-04-12T00:12:25.084Z,42.50
2023-04-12T00:13:25.061Z,45.14
2023-04-12T00:14:25.034Z,42.61
2023-04-12T00:15:25.052Z,42.50
2023-04-12T00:16:25.087Z,42.55
2023-04-12T00:17:25.009Z,42.55
2023-04-12T00:18:25.249Z,42.55
2023-04-12T00:19:24.974Z,42.55
2023-04-12T00:20:24.958Z,42.44
2023-04-12T00:21:24.974Z,42.44
2023-04-12T00:22:24.938Z,42.61
2023-04-12T00:23:24.923Z,42.55
2023-04-12T00:24:24.932Z,42.50
2023-04-12T00:25:24.899Z,42.61
2023-04-12T00:26:24.905Z,42.50
2023-04-12T00:27:24.879Z,45.09
2023-04-12T00:28:24.852Z,42.55
2023-04-12T00:29:24.849Z,42.55
2023-04-12T00:30:24.828Z,42.50
2023-04-12T00:31:24.870Z,42.50
2023-04-12T00:32:24.845Z,42.55
2023-04-12T00:33:24.788Z,42.50
2023-04-12T00:34:24.771Z,42.55
2023-04-12T00:35:24.759Z,42.50
2023-04-12T00:36:24.756Z,42.50
2023-04-12T00:37:24.735Z,42.50
2023-04-12T00:38:24.728Z,42.61
2023-04-12T00:39:24.704Z,42.50
2023-04-12T00:40:24.698Z,42.55
2023-04-12T00:41:24.691Z,42.50
2023-04-12T00:42:24.667Z,42.50
2023-04-12T00:43:24.656Z,42.50
2023-04-12T00:44:24.673Z,42.44
2023-04-12T00:45:24.644Z,42.50
2023-04-12T00:46:24.671Z,45.14
2023-04-12T00:47:24.664Z,42.55
2023-04-12T00:48:24.616Z,42.55
2023-04-12T00:49:24.577Z,42.55
2023-04-12T00:50:24.563Z,42.55
2023-04-12T00:51:24.559Z,45.09
2023-04-12T00:52:24.555Z,45.09
2023-04-12T00:53:24.533Z,45.09
2023-04-12T00:54:24.530Z,42.50
2023-04-12T00:55:24.506Z,42.50
2023-04-12T00:56:24.489Z,42.55
2023-04-12T00:57:24.472Z,42.50
2023-04-12T00:58:24.467Z,45.14
2023-04-12T00:59:24.446Z,42.50
2023-04-12T01:00:24.442Z,45.04
2023-04-12T01:01:24.456Z,42.55
2023-04-12T01:02:24.602Z,42.50
2023-04-12T01:03:24.602Z,42.50
2023-04-12T01:04:24.379Z,42.50
2023-04-12T01:05:24.409Z,42.61
2023-04-12T01:06:24.355Z,42.39
2023-04-12T01:07:24.339Z,42.50
2023-04-12T01:08:24.331Z,42.55
2023-04-12T01:09:24.316Z,42.55
2023-04-12T01:10:24.309Z,42.50
2023-04-12T01:11:24.291Z,42.61
2023-04-12T01:12:24.279Z,42.50
2023-04-12T01:13:24.261Z,42.50
2023-04-12T01:14:24.255Z,42.50
2023-04-12T01:15:24.247Z,45.09
2023-04-12T01:16:24.273Z,42.61
2023-04-12T01:17:24.287Z,45.09
2023-04-12T01:18:24.210Z,42.50
2023-04-12T01:19:24.215Z,42.50
2023-04-12T01:20:24.169Z,42.50
2023-04-12T01:21:24.174Z,42.55
2023-04-12T01:22:24.149Z,45.14
2023-04-12T01:23:24.127Z,42.55
2023-04-12T01:24:24.134Z,42.55
2023-04-12T01:25:24.224Z,42.50
2023-04-12T01:26:24.134Z,42.44
2023-04-12T01:27:24.079Z,42.44
2023-04-12T01:28:24.088Z,42.44
2023-04-12T01:29:24.064Z,45.04
2023-04-12T01:30:24.048Z,42.50
2023-04-12T01:31:24.065Z,42.50
2023-04-12T01:32:24.019Z,42.55
2023-04-12T01:33:24.001Z,42.44
2023-04-12T01:34:23.987Z,42.55
2023-04-12T01:35:24.034Z,42.50
2023-04-12T01:36:23.963Z,42.44
2023-04-12T01:37:23.952Z,42.50
2023-04-12T01:38:23.940Z,42.61
2023-04-12T01:39:23.917Z,42.50
2023-04-12T01:40:23.911Z,42.55
2023-04-12T01:41:23.897Z,42.55
2023-04-12T01:42:23.893Z,42.50
2023-04-12T01:43:23.872Z,42.50
2023-04-12T01:44:23.875Z,45.04
2023-04-12T01:45:23.876Z,42.50
2023-04-12T01:46:23.833Z,42.55
2023-04-12T01:47:23.817Z,42.50
2023-04-12T01:48:23.809Z,42.55
2023-04-12T01:49:23.793Z,42.55
2023-04-12T01:50:23.792Z,42.61
2023-04-12T01:51:23.808Z,42.44
2023-04-12T01:52:23.756Z,42.55
2023-04-12T01:53:23.745Z,42.61
2023-04-12T01:54:23.729Z,45.14
2023-04-12T01:55:23.703Z,42.66
2023-04-12T01:56:23.704Z,42.50
2023-04-12T01:57:23.700Z,42.44
2023-04-12T01:58:23.687Z,42.61
2023-04-12T01:59:23.656Z,42.50
2023-04-12T02:00:23.655Z,42.55
2023-04-12T02:01:23.668Z,45.04
2023-04-12T02:02:23.738Z,45.04
2023-04-12T02:03:23.809Z,42.50
2023-04-12T02:04:23.589Z,42.55
2023-04-12T02:05:23.587Z,42.44
2023-04-12T02:06:23.573Z,42.44
2023-04-12T02:07:23.588Z,42.55
2023-04-12T02:08:23.549Z,42.55
2023-04-12T02:09:23.530Z,42.50
2023-04-12T02:10:23.512Z,42.50
2023-04-12T02:11:23.499Z,42.44
2023-04-12T02:12:23.499Z,42.44
2023-04-12T02:13:23.470Z,45.14
2023-04-12T02:14:23.486Z,44.98
2023-04-12T02:15:23.451Z,42.44
2023-04-12T02:16:23.452Z,42.55
2023-04-12T02:17:23.420Z,42.55
2023-04-12T02:18:23.404Z,42.55
2023-04-12T02:19:23.404Z,42.50
2023-04-12T02:20:23.379Z,45.04
2023-04-12T02:21:23.359Z,42.55
2023-04-12T02:22:23.375Z,42.55
2023-04-12T02:23:23.367Z,42.50
2023-04-12T02:24:23.344Z,42.44
2023-04-12T02:25:23.343Z,42.55
2023-04-12T02:26:23.409Z,42.50
2023-04-12T02:27:23.292Z,45.04
2023-04-12T02:28:23.277Z,42.55
2023-04-12T02:29:23.270Z,42.55
2023-04-12T02:30:23.242Z,42.50
2023-04-12T02:31:23.398Z,42.50
2023-04-12T02:32:23.218Z,45.04
2023-04-12T02:33:23.207Z,42.50
2023-04-12T02:34:23.193Z,42.55
2023-04-12T02:35:23.203Z,42.50
2023-04-12T02:36:23.176Z,42.55
2023-04-12T02:37:23.163Z,45.04
2023-04-12T02:38:23.142Z,42.61
2023-04-12T02:39:23.157Z,42.55
2023-04-12T02:40:23.130Z,42.61
2023-04-12T02:41:23.107Z,42.55
2023-04-12T02:42:23.097Z,42.50
2023-04-12T02:43:23.077Z,42.61
2023-04-12T02:44:23.068Z,45.04
2023-04-12T02:45:23.049Z,42.55
2023-04-12T02:46:23.042Z,42.55
2023-04-12T02:47:23.082Z,42.55
2023-04-12T02:48:23.020Z,42.50
2023-04-12T02:49:22.994Z,42.61
2023-04-12T02:50:22.988Z,42.50
2023-04-12T02:51:22.975Z,45.09
2023-04-12T02:52:22.960Z,42.55
2023-04-12T02:53:22.942Z,42.50
2023-04-12T02:54:22.939Z,45.20
2023-04-12T02:55:22.963Z,42.50
2023-04-12T02:56:22.918Z,42.50
2023-04-12T02:57:22.895Z,42.50
2023-04-12T02:58:22.876Z,42.55
2023-04-12T02:59:22.873Z,42.61
2023-04-12T03:00:22.872Z,45.09
2023-04-12T03:01:22.893Z,45.09
2023-04-12T03:02:23.167Z,42.44
2023-04-12T03:03:23.173Z,42.50
2023-04-12T03:04:22.962Z,42.55
2023-04-12T03:05:22.784Z,45.09
2023-04-12T03:06:22.783Z,42.50
2023-04-12T03:07:22.769Z,45.04
2023-04-12T03:08:22.749Z,42.50
2023-04-12T03:09:22.758Z,42.61
2023-04-12T03:10:22.723Z,42.55
2023-04-12T03:11:22.740Z,42.61
2023-04-12T03:12:22.702Z,42.50
2023-04-12T03:13:22.682Z,42.50
2023-04-12T03:14:22.680Z,42.55
2023-04-12T03:15:22.652Z,42.44
2023-04-12T03:16:22.696Z,42.50
2023-04-12T03:17:22.690Z,42.55
2023-04-12T03:18:22.622Z,42.61
2023-04-12T03:19:22.610Z,42.50
2023-04-12T03:20:22.593Z,42.44
2023-04-12T03:21:22.572Z,42.50
2023-04-12T03:22:22.569Z,42.61
2023-04-12T03:23:22.559Z,42.55
2023-04-12T03:24:22.541Z,45.04
2023-04-12T03:25:22.520Z,42.55
2023-04-12T03:26:22.517Z,45.04
2023-04-12T03:27:22.523Z,42.61
2023-04-12T03:28:22.490Z,45.09
2023-04-12T03:29:22.481Z,42.50
2023-04-12T03:30:22.458Z,42.44
2023-04-12T03:31:22.469Z,45.04
2023-04-12T03:32:22.449Z,45.04
2023-04-12T03:33:22.421Z,42.55
2023-04-12T03:34:22.407Z,42.66
2023-04-12T03:35:22.414Z,42.55
2023-04-12T03:36:22.379Z,42.44
2023-04-12T03:37:22.371Z,42.44
2023-04-12T03:38:22.346Z,45.20
2023-04-12T03:39:22.353Z,45.14
2023-04-12T03:40:22.324Z,45.09
2023-04-12T03:41:22.305Z,42.50
2023-04-12T03:42:32.848Z,44.98
2023-04-12T03:43:23.350Z,45.09
2023-04-12T03:44:22.274Z,42.50
2023-04-12T03:45:22.260Z,42.44
2023-04-12T03:46:22.242Z,45.04
2023-04-12T03:47:22.260Z,42.50
2023-04-12T03:48:22.213Z,45.14
2023-04-12T03:49:22.207Z,45.04
2023-04-12T03:50:22.197Z,45.04
2023-04-12T03:51:22.273Z,45.09
2023-04-12T03:52:22.168Z,42.50
2023-04-12T03:53:22.149Z,42.50
2023-04-12T03:54:22.145Z,45.09
2023-04-12T03:55:22.133Z,45.09
2023-04-12T03:56:22.108Z,45.14
2023-04-12T03:57:22.106Z,44.98
2023-04-12T03:58:22.094Z,42.55
2023-04-12T03:59:22.102Z,42.55
2023-04-12T04:00:22.073Z,42.50
2023-04-12T04:01:22.047Z,42.50
2023-04-12T04:02:22.197Z,45.04
2023-04-12T04:03:22.094Z,42.50
2023-04-12T04:04:22.194Z,45.14
2023-04-12T04:05:22.002Z,44.98
2023-04-12T04:06:21.987Z,42.50
2023-04-12T04:07:21.972Z,45.09
2023-04-12T04:08:21.971Z,45.09
2023-04-12T04:09:21.964Z,45.09
2023-04-12T04:10:21.938Z,45.09
2023-04-12T04:11:21.915Z,45.09
2023-04-12T04:12:21.915Z,45.14
2023-04-12T04:13:21.899Z,45.04
2023-04-12T04:14:21.877Z,45.04
2023-04-12T04:15:21.891Z,45.04
2023-04-12T04:16:21.929Z,42.55
2023-04-12T04:17:21.898Z,45.09
2023-04-12T04:18:21.820Z,45.09
2023-04-12T04:19:21.809Z,45.09
2023-04-12T04:20:21.801Z,45.04
2023-04-12T04:21:21.782Z,45.04
2023-04-12T04:22:21.869Z,45.09
2023-04-12T04:23:21.765Z,45.09
2023-04-12T04:24:21.744Z,45.09
2023-04-12T04:25:21.759Z,42.55
2023-04-12T04:26:21.722Z,45.09
2023-04-12T04:27:21.713Z,45.04
2023-04-12T04:28:21.690Z,45.04
2023-04-12T04:29:21.677Z,45.04
2023-04-12T04:30:21.672Z,45.04
2023-04-12T04:31:21.687Z,44.98
2023-04-12T04:32:21.670Z,45.04
2023-04-12T04:33:21.628Z,44.98
2023-04-12T04:34:21.626Z,45.09
2023-04-12T04:35:21.726Z,45.09
2023-04-12T04:36:21.607Z,45.04
2023-04-12T04:37:21.580Z,45.04
2023-04-12T04:38:21.568Z,45.14
2023-04-12T04:39:21.587Z,45.14
2023-04-12T04:40:21.545Z,45.04
2023-04-12T04:41:21.537Z,45.04
2023-04-12T04:42:21.544Z,45.09
2023-04-12T04:43:21.505Z,45.09
2023-04-12T04:44:21.547Z,45.09
2023-04-12T04:45:21.606Z,45.09
2023-04-12T04:46:21.554Z,44.98
2023-04-12T04:47:21.579Z,45.09
2023-04-12T04:48:21.551Z,45.14
2023-04-12T04:49:21.481Z,45.14
2023-04-12T04:50:21.416Z,45.14
2023-04-12T04:51:21.511Z,45.14
2023-04-12T04:52:21.390Z,45.09
2023-04-12T04:53:21.374Z,45.14
2023-04-12T04:54:21.354Z,45.14
2023-04-12T04:55:21.378Z,45.09
2023-04-12T04:56:21.331Z,45.14
2023-04-12T04:57:21.329Z,45.04
2023-04-12T04:58:21.316Z,45.14
2023-04-12T04:59:21.308Z,45.09
2023-04-12T05:00:21.298Z,45.09
2023-04-12T05:01:21.301Z,45.09
2023-04-12T05:02:21.452Z,45.14
2023-04-12T05:03:21.356Z,45.04
2023-04-12T05:04:21.258Z,45.14
2023-04-12T05:05:21.219Z,45.09
2023-04-12T05:06:21.196Z,45.04
2023-04-12T05:07:21.179Z,45.04
2023-04-12T05:08:21.182Z,47.57
2023-04-12T05:09:21.162Z,45.14
2023-04-12T05:10:21.149Z,45.04
2023-04-12T05:11:21.125Z,45.14
2023-04-12T05:12:21.122Z,47.57
2023-04-12T05:13:21.099Z,45.14
2023-04-12T05:14:23.212Z,45.04
2023-04-12T05:15:21.077Z,45.04
2023-04-12T05:16:21.094Z,45.04
2023-04-12T05:17:21.131Z,45.04
2023-04-12T05:18:21.033Z,45.14
2023-04-12T05:19:21.099Z,45.09
2023-04-12T05:20:21.013Z,45.14
2023-04-12T05:21:22.148Z,45.09
2023-04-12T05:22:20.986Z,45.04
2023-04-12T05:23:20.975Z,45.20
2023-04-12T05:24:20.970Z,45.14
2023-04-12T05:25:20.983Z,45.09
2023-04-12T05:26:20.930Z,47.57
2023-04-12T05:27:20.931Z,45.09
2023-04-12T05:28:20.913Z,45.04
2023-04-12T05:29:20.895Z,47.57
2023-04-12T05:30:20.893Z,47.63
2023-04-12T05:31:21.094Z,47.57
2023-04-12T05:32:20.941Z,47.68
2023-04-12T05:33:20.847Z,47.63
2023-04-12T05:34:20.835Z,47.57
2023-04-12T05:35:20.867Z,45.04
2023-04-12T05:36:20.808Z,47.57
2023-04-12T05:37:20.787Z,47.57
2023-04-12T05:38:20.772Z,47.68
2023-04-12T05:39:20.919Z,47.74
2023-04-12T05:40:20.759Z,47.57
2023-04-12T05:41:20.764Z,47.74
2023-04-12T05:42:20.732Z,47.63
2023-04-12T05:43:20.716Z,47.68
2023-04-12T05:44:20.707Z,47.52
2023-04-12T05:45:20.683Z,47.63
2023-04-12T05:46:20.802Z,47.57
2023-04-12T05:47:20.670Z,47.57
2023-04-12T05:48:20.657Z,47.63
2023-04-12T05:49:20.636Z,47.63
2023-04-12T05:50:20.637Z,47.57
2023-04-12T05:51:30.665Z,47.63
2023-04-12T05:52:21.631Z,47.63
2023-04-12T05:53:20.591Z,47.68
2023-04-12T05:54:20.580Z,47.57
2023-04-12T05:55:20.561Z,47.63
2023-04-12T05:56:20.542Z,47.57
2023-04-12T05:57:20.545Z,47.68
2023-04-12T05:58:20.530Z,50.17
2023-04-12T05:59:20.512Z,47.68
2023-04-12T06:00:20.520Z,47.63
2023-04-12T06:01:20.476Z,47.63
2023-04-12T06:02:20.578Z,47.63
2023-04-12T06:03:20.648Z,47.63
2023-04-12T06:04:20.682Z,47.63
2023-04-12T06:05:20.458Z,47.63
2023-04-12T06:06:20.441Z,50.11
2023-04-12T06:07:20.441Z,47.57
2023-04-12T06:08:20.431Z,47.57
2023-04-12T06:09:20.385Z,47.74
2023-04-12T06:10:20.378Z,47.68
2023-04-12T06:11:20.371Z,47.68
2023-04-12T06:12:20.352Z,47.63
2023-04-12T06:13:20.331Z,47.68
2023-04-12T06:14:20.323Z,47.63
2023-04-12T06:15:20.309Z,47.68
2023-04-12T06:16:20.444Z,47.63
2023-04-12T06:17:20.295Z,50.17
2023-04-12T06:18:20.281Z,47.57
2023-04-12T06:19:20.258Z,50.17
2023-04-12T06:20:20.254Z,47.57
2023-04-12T06:21:20.242Z,47.74
2023-04-12T06:22:20.230Z,50.11
2023-04-12T06:23:20.248Z,47.68
2023-04-12T06:24:20.190Z,50.22
2023-04-12T06:25:20.175Z,47.57
2023-04-12T06:26:20.160Z,50.06
2023-04-12T06:27:20.145Z,47.68
2023-04-12T06:28:20.133Z,47.57
2023-04-12T06:29:20.137Z,47.57
2023-04-12T06:30:20.102Z,50.22
2023-04-12T06:31:20.144Z,50.11
2023-04-12T06:32:20.076Z,47.52
2023-04-12T06:33:20.071Z,47.57
2023-04-12T06:34:20.055Z,50.11
2023-04-12T06:35:20.061Z,50.17
2023-04-12T06:36:20.020Z,47.57
2023-04-12T06:37:20.018Z,50.00
2023-04-12T06:38:19.993Z,50.17
2023-04-12T06:39:20.038Z,50.27
2023-04-12T06:40:19.981Z,50.27
2023-04-12T06:41:19.953Z,50.17
2023-04-12T06:42:19.946Z,50.11
2023-04-12T06:43:19.938Z,50.17
2023-04-12T06:44:19.927Z,50.06
2023-04-12T06:45:20.065Z,50.22
2023-04-12T06:46:19.915Z,50.17
2023-04-12T06:47:19.886Z,50.17
2023-04-12T06:48:19.866Z,50.11
2023-04-12T06:49:19.855Z,47.63
2023-04-12T06:50:19.854Z,50.11
2023-04-12T06:51:19.838Z,50.33
2023-04-12T06:52:19.810Z,50.22
2023-04-12T06:53:19.806Z,50.11
2023-04-12T06:54:19.803Z,50.17
2023-04-12T06:55:19.861Z,50.17
2023-04-12T06:56:19.767Z,50.11
2023-04-12T06:57:19.746Z,50.17
2023-04-12T06:58:19.753Z,50.11
2023-04-12T06:59:19.883Z,50.11
2023-04-12T07:00:19.710Z,50.22
2023-04-12T07:01:19.802Z,50.17
2023-04-12T07:02:19.800Z,50.11
2023-04-12T07:03:19.810Z,50.17
2023-04-12T07:04:19.772Z,50.17
2023-04-12T07:05:19.650Z,50.17
2023-04-12T07:06:25.131Z,50.17
2023-04-12T07:07:20.673Z,50.17
2023-04-12T07:08:19.603Z,50.22
2023-04-12T07:09:19.591Z,50.17
2023-04-12T07:10:19.580Z,50.17
2023-04-12T07:11:21.830Z,50.17
2023-04-12T07:12:19.560Z,50.17
2023-04-12T07:13:20.152Z,50.27
2023-04-12T07:14:19.530Z,50.17
2023-04-12T07:15:19.520Z,50.17
2023-04-12T07:16:19.569Z,50.11
2023-04-12T07:17:19.497Z,50.17
2023-04-12T07:18:19.484Z,50.11
2023-04-12T07:19:19.461Z,50.17
2023-04-12T07:20:19.452Z,50.17
2023-04-12T07:21:19.445Z,50.11
2023-04-12T07:22:19.441Z,50.17
2023-04-12T07:23:19.429Z,50.22
2023-04-12T07:24:19.426Z,50.22
2023-04-12T07:25:19.409Z,50.11
2023-04-12T07:26:19.384Z,50.22
2023-04-12T07:27:19.396Z,50.22
2023-04-12T07:28:19.353Z,50.17
2023-04-12T07:29:19.332Z,50.11
2023-04-12T07:30:19.319Z,50.22
2023-04-12T07:31:19.314Z,50.11
2023-04-12T07:32:19.308Z,50.17
2023-04-12T07:33:20.167Z,50.11
2023-04-12T07:34:19.386Z,50.11
2023-04-12T07:35:19.268Z,50.17
2023-04-12T07:36:19.278Z,50.06
2023-04-12T07:37:19.235Z,50.11
2023-04-12T07:38:19.226Z,50.17
2023-04-12T07:39:19.250Z,50.22
2023-04-12T07:40:19.193Z,50.06
2023-04-12T07:41:19.182Z,50.22
2023-04-12T07:42:19.175Z,50.11
2023-04-12T07:43:19.197Z,50.22
2023-04-12T07:44:19.145Z,50.22
2023-04-12T07:45:19.127Z,50.11
2023-04-12T07:46:19.191Z,50.11
2023-04-12T07:47:19.114Z,50.17
2023-04-12T07:48:19.090Z,50.06
2023-04-12T07:49:19.097Z,50.17
2023-04-12T07:50:19.068Z,50.11
2023-04-12T07:51:19.060Z,50.22
2023-04-12T07:52:19.042Z,50.27
2023-04-12T07:53:19.031Z,50.11
2023-04-12T07:54:19.017Z,50.11
2023-04-12T07:55:18.999Z,50.17
2023-04-12T07:56:18.996Z,50.11
2023-04-12T07:57:18.977Z,50.11
2023-04-12T07:58:18.994Z,50.17
2023-04-12T07:59:19.015Z,50.11
2023-04-12T08:00:18.939Z,50.11
2023-04-12T08:01:18.920Z,50.06
2023-04-12T08:02:19.001Z,50.17
2023-04-12T08:03:19.075Z,50.06
2023-04-12T08:04:19.006Z,50.11
2023-04-12T08:05:18.912Z,50.06
2023-04-12T08:06:18.884Z,50.11
2023-04-12T08:07:18.857Z,50.11
2023-04-12T08:08:18.834Z,50.11
2023-04-12T08:09:18.821Z,50.11
2023-04-12T08:10:18.802Z,50.22
2023-04-12T08:11:18.783Z,50.11
2023-04-12T08:12:18.791Z,50.17
2023-04-12T08:13:18.781Z,50.22
2023-04-12T08:14:18.762Z,50.22
2023-04-12T08:15:18.783Z,50.22
2023-04-12T08:16:18.877Z,50.22
2023-04-12T08:17:18.718Z,50.06
2023-04-12T08:18:18.721Z,50.11
2023-04-12T08:19:18.701Z,50.11
2023-04-12T08:20:18.671Z,50.17
2023-04-12T08:21:18.652Z,50.17
2023-04-12T08:22:18.660Z,50.11
2023-04-12T08:23:18.648Z,50.17
2023-04-12T08:24:18.682Z,50.22
2023-04-12T08:25:18.617Z,50.11
2023-04-12T08:26:18.592Z,50.22
2023-04-12T08:27:18.604Z,50.17
2023-04-12T08:28:18.593Z,50.17
2023-04-12T08:29:18.557Z,50.17
2023-04-12T08:30:18.582Z,50.17
2023-04-12T08:31:18.645Z,50.11
2023-04-12T08:32:18.553Z,50.17
2023-04-12T08:33:18.508Z,50.11
2023-04-12T08:34:18.486Z,50.22
2023-04-12T08:35:18.489Z,50.17
2023-04-12T08:36:18.497Z,50.22
2023-04-12T08:37:18.472Z,50.11
2023-04-12T08:38:18.439Z,50.11
2023-04-12T08:39:18.430Z,50.17
2023-04-12T08:40:18.436Z,50.22
2023-04-12T08:41:18.415Z,50.17
2023-04-12T08:42:18.381Z,50.11
2023-04-12T08:43:18.365Z,50.11
2023-04-12T08:44:18.368Z,50.17
2023-04-12T08:45:18.340Z,50.17
2023-04-12T08:46:18.379Z,50.17
2023-04-12T08:47:18.462Z,50.06
2023-04-12T08:48:18.311Z,50.17
2023-04-12T08:49:18.287Z,50.17
2023-04-12T08:50:18.287Z,50.17
2023-04-12T08:51:18.262Z,50.11
2023-04-12T08:52:18.274Z,50.22
2023-04-12T08:53:18.246Z,50.17
2023-04-12T08:54:18.223Z,50.22
2023-04-12T08:55:18.217Z,50.17
2023-04-12T08:56:18.206Z,50.17
2023-04-12T08:57:18.213Z,50.17
2023-04-12T08:58:18.186Z,50.22
2023-04-12T08:59:18.160Z,50.11
2023-04-12T09:00:18.148Z,50.06
2023-04-12T09:01:18.145Z,50.11
2023-04-12T09:02:18.205Z,50.11
2023-04-12T09:03:18.385Z,50.17
2023-04-12T09:04:18.335Z,50.17
2023-04-12T09:05:18.129Z,50.22
2023-04-12T09:06:18.076Z,50.11
2023-04-12T09:07:18.069Z,50.11
2023-04-12T09:08:18.052Z,50.22
2023-04-12T09:09:18.034Z,50.22
2023-04-12T09:10:18.021Z,50.17
2023-04-12T09:11:17.996Z,50.11
2023-04-12T09:12:17.988Z,50.22
2023-04-12T09:13:18.016Z,50.11
2023-04-12T09:14:17.973Z,50.11
2023-04-12T09:15:17.984Z,50.17
2023-04-12T09:16:18.025Z,50.11
2023-04-12T09:17:17.925Z,50.17
2023-04-12T09:18:17.964Z,50.22
2023-04-12T09:19:17.932Z,50.11
2023-04-12T09:20:18.060Z,50.11
2023-04-12T09:21:17.871Z,50.11
2023-04-12T09:22:17.863Z,50.17
2023-04-12T09:23:17.841Z,50.27
2023-04-12T09:24:17.844Z,50.17
2023-04-12T09:25:17.843Z,50.11
2023-04-12T09:26:17.810Z,50.11
2023-04-12T09:27:17.793Z,50.22
2023-04-12T09:28:17.774Z,50.11
2023-04-12T09:29:17.773Z,50.11
2023-04-12T09:30:17.836Z,50.11
2023-04-12T09:31:17.821Z,50.17
2023-04-12T09:32:17.775Z,50.17
2023-04-12T09:33:17.711Z,50.11
2023-04-12T09:34:17.707Z,50.17
2023-04-12T09:35:17.906Z,50.17
2023-04-12T09:36:17.749Z,50.11
2023-04-12T09:37:17.656Z,50.11
2023-04-12T09:38:17.646Z,50.22
2023-04-12T09:39:17.633Z,50.17
2023-04-12T09:40:17.746Z,50.17
2023-04-12T09:41:20.246Z,50.22
2023-04-12T09:42:32.510Z,50.17
2023-04-12T09:43:18.651Z,50.11
2023-04-12T09:44:17.593Z,50.11
2023-04-12T09:45:17.564Z,50.11
2023-04-12T09:46:17.617Z,50.11
2023-04-12T09:47:17.555Z,50.22
2023-04-12T09:48:17.515Z,50.17
2023-04-12T09:49:17.513Z,50.22
2023-04-12T09:50:17.526Z,50.17
2023-04-12T09:51:17.523Z,50.17
2023-04-12T09:52:17.499Z,50.17
2023-04-12T09:53:17.478Z,50.17
2023-04-12T09:54:17.463Z,50.27
2023-04-12T09:55:17.456Z,50.22
2023-04-12T09:56:17.422Z,50.22
2023-04-12T09:57:17.410Z,50.17
2023-04-12T09:58:17.405Z,50.27
2023-04-12T09:59:17.379Z,50.17
2023-04-12T10:00:17.954Z,50.22
2023-04-12T10:01:17.773Z,50.17
2023-04-12T10:02:17.540Z,50.17
2023-04-12T10:03:17.464Z,50.17
2023-04-12T10:04:17.456Z,50.11
2023-04-12T10:05:17.583Z,50.22
2023-04-12T10:06:17.297Z,50.11
2023-04-12T10:07:17.321Z,50.22
2023-04-12T10:08:17.280Z,50.11
2023-04-12T10:09:17.248Z,50.17
2023-04-12T10:10:17.565Z,50.11
2023-04-12T10:11:17.218Z,50.17
2023-04-12T10:12:17.232Z,50.17
2023-04-12T10:13:17.203Z,50.17
2023-04-12T10:14:17.702Z,50.17
2023-04-12T10:15:17.638Z,50.22
2023-04-12T10:16:17.247Z,50.11
2023-04-12T10:17:17.145Z,50.22
2023-04-12T10:18:17.220Z,50.11
2023-04-12T10:19:17.117Z,50.17
2023-04-12T10:20:17.255Z,50.11
2023-04-12T10:21:17.093Z,50.11
2023-04-12T10:22:17.104Z,50.17
2023-04-12T10:23:17.122Z,50.11
2023-04-12T10:24:17.041Z,50.22
2023-04-12T10:25:17.075Z,50.22
2023-04-12T10:26:17.051Z,50.11
2023-04-12T10:27:17.012Z,50.11
2023-04-12T10:28:17.029Z,50.22
2023-04-12T10:29:16.987Z,50.06
2023-04-12T10:30:16.976Z,50.17
2023-04-12T10:31:17.062Z,50.11
2023-04-12T10:32:16.966Z,50.11
2023-04-12T10:33:17.174Z,50.17
2023-04-12T10:34:16.951Z,50.17
2023-04-12T10:35:16.933Z,50.17
2023-04-12T10:36:16.963Z,50.17
2023-04-12T10:37:16.880Z,50.17
2023-04-12T10:38:16.906Z,50.22
2023-04-12T10:39:16.917Z,50.11
2023-04-12T10:40:16.847Z,50.11
2023-04-12T10:41:16.869Z,50.17
2023-04-12T10:42:16.843Z,50.11
2023-04-12T10:43:16.820Z,50.11
2023-04-12T10:44:16.817Z,50.17
2023-04-12T10:45:16.829Z,50.22
2023-04-12T10:46:16.795Z,50.11
2023-04-12T10:47:16.803Z,50.17
2023-04-12T10:48:16.793Z,50.22
2023-04-12T10:49:16.728Z,50.17
2023-04-12T10:50:16.728Z,50.17
2023-04-12T10:51:16.707Z,50.17
2023-04-12T10:52:16.703Z,50.17
2023-04-12T10:53:16.703Z,50.11
2023-04-12T10:54:16.673Z,50.11
2023-04-12T10:55:16.745Z,50.17
2023-04-12T10:56:16.674Z,50.17
2023-04-12T10:57:16.638Z,50.17
2023-04-12T10:58:16.611Z,50.22
2023-04-12T10:59:16.768Z,50.17
2023-04-12T11:00:16.845Z,50.22
2023-04-12T11:01:16.739Z,50.17
2023-04-12T11:02:16.733Z,50.17
2023-04-12T11:03:16.633Z,50.17
2023-04-12T11:04:16.941Z,50.17
2023-04-12T11:05:16.562Z,50.11
2023-04-12T11:06:27.273Z,50.11
2023-04-12T11:07:17.533Z,50.17
2023-04-12T11:08:16.505Z,50.17
2023-04-12T11:09:16.475Z,50.22
2023-04-12T11:10:16.460Z,50.22
2023-04-12T11:11:16.474Z,50.17
2023-04-12T11:12:16.431Z,50.06
2023-04-12T11:13:16.438Z,50.06
2023-04-12T11:14:16.415Z,50.17
2023-04-12T11:15:16.381Z,50.17
2023-04-12T11:16:16.426Z,50.22
2023-04-12T11:17:16.442Z,50.17
2023-04-12T11:18:16.384Z,50.11
2023-04-12T11:19:16.362Z,50.11
2023-04-12T11:20:16.339Z,50.11
2023-04-12T11:21:16.342Z,50.27
2023-04-12T11:22:16.301Z,50.11
2023-04-12T11:23:16.304Z,50.22
2023-04-12T11:24:16.294Z,50.11
2023-04-12T11:25:16.291Z,50.17
2023-04-12T11:26:16.263Z,50.11
2023-04-12T11:27:16.425Z,50.11
2023-04-12T11:28:27.840Z,50.27
2023-04-12T11:29:17.246Z,50.11
2023-04-12T11:30:16.200Z,50.17
2023-04-12T11:31:16.206Z,50.22
2023-04-12T11:32:16.240Z,50.22
2023-04-12T11:33:16.164Z,50.17
2023-04-12T11:34:16.241Z,50.17
2023-04-12T11:35:16.152Z,50.11
2023-04-12T11:36:16.112Z,50.11
2023-04-12T11:37:16.132Z,50.27
2023-04-12T11:38:16.095Z,50.11
2023-04-12T11:39:16.081Z,50.11
2023-04-12T11:40:16.081Z,50.22
2023-04-12T11:41:16.076Z,50.22
2023-04-12T11:42:16.078Z,50.17
2023-04-12T11:43:16.059Z,50.22
2023-04-12T11:44:16.006Z,50.17
2023-04-12T11:45:18.258Z,50.17
2023-04-12T11:46:16.043Z,50.17
2023-04-12T11:47:15.978Z,50.17
2023-04-12T11:48:15.989Z,50.11
2023-04-12T11:49:15.962Z,50.06
2023-04-12T11:50:15.937Z,50.22
2023-04-12T11:51:15.936Z,50.17
2023-04-12T11:52:15.905Z,50.11
2023-04-12T11:53:15.908Z,50.11
2023-04-12T11:54:15.885Z,50.06
2023-04-12T11:55:15.872Z,50.17
2023-04-12T11:56:15.857Z,50.11
2023-04-12T11:57:15.836Z,50.17
2023-04-12T11:58:15.830Z,50.17
2023-04-12T11:59:15.842Z,50.11
2023-04-12T12:00:15.796Z,50.17
2023-04-12T12:01:15.789Z,50.17
2023-04-12T12:02:22.733Z,50.11
2023-04-12T12:03:16.978Z,50.17
2023-04-12T12:04:15.860Z,50.17
2023-04-12T12:05:15.804Z,50.22
2023-04-12T12:06:15.873Z,50.11
2023-04-12T12:07:16.097Z,50.17
2023-04-12T12:08:15.704Z,50.17
2023-04-12T12:09:15.698Z,50.17
2023-04-12T12:10:27.524Z,50.27
2023-04-12T12:11:16.678Z,50.17
2023-04-12T12:12:15.657Z,50.22
2023-04-12T12:13:15.632Z,50.27
2023-04-12T12:14:15.629Z,50.22
2023-04-12T12:15:15.629Z,50.11
2023-04-12T12:16:15.697Z,50.17
2023-04-12T12:17:15.577Z,50.22
2023-04-12T12:18:15.563Z,50.17
2023-04-12T12:19:15.564Z,50.11
2023-04-12T12:20:15.542Z,50.22
2023-04-12T12:21:15.524Z,50.27
2023-04-12T12:22:15.515Z,50.22
2023-04-12T12:23:15.496Z,50.11
2023-04-12T12:24:15.485Z,50.11
2023-04-12T12:25:15.488Z,50.11
2023-04-12T12:26:18.978Z,50.17
2023-04-12T12:27:15.457Z,50.22
2023-04-12T12:28:15.464Z,50.22
2023-04-12T12:29:15.423Z,50.17
2023-04-12T12:30:15.403Z,50.17
2023-04-12T12:31:15.438Z,50.11
2023-04-12T12:32:15.381Z,50.11
2023-04-12T12:33:15.374Z,50.11
2023-04-12T12:34:15.360Z,50.11
2023-04-12T12:35:15.345Z,50.17
2023-04-12T12:36:15.386Z,50.17
2023-04-12T12:37:15.317Z,50.11
2023-04-12T12:38:15.314Z,50.22
2023-04-12T12:39:15.339Z,50.17
2023-04-12T12:40:15.285Z,50.22
2023-04-12T12:41:15.269Z,50.22
2023-04-12T12:42:15.263Z,50.22
2023-04-12T12:43:15.255Z,50.11
2023-04-12T12:44:15.261Z,50.17
2023-04-12T12:45:15.219Z,50.11
2023-04-12T12:46:15.224Z,50.22
2023-04-12T12:47:15.267Z,50.17
2023-04-12T12:48:15.302Z,50.17
2023-04-12T12:49:15.186Z,50.17
2023-04-12T12:50:15.169Z,50.17
2023-04-12T12:51:15.135Z,50.22
2023-04-12T12:52:17.676Z,50.17